Time;durP1;ratioP1;P1;durP2;ratioP2;P2;SDS_P1;SDS_P2;PMS_P1;PMS_P2;Temp;Humidity;BMP_temperature;BMP_pressure;BME280_temperature;BME280_humidity;BME280_pressure;Samples;Min_cycle;Max_cycle;Signal;HPM_P1;HPM_P2
2023/04/05 00:01:33;;;;;;;9.13;5.33;;;-1.90;80.30;;;;;;5055477;28;20052;-22
2023/04/05 00:03:59;;;;;;;11.70;6.23;;;-1.80;99.90;;;;;;5054878;28;20048;-22
2023/04/05 00:06:29;;;;;;;11.97;5.10;;;-1.80;99.60;;;;;;5054791;28;20486;-22
2023/04/05 00:09:00;;;;;;;15.83;5.93;;;-1.80;97.40;;;;;;5054545;28;20048;-22
2023/04/05 00:11:28;;;;;;;12.23;5.17;;;-1.90;99.90;;;;;;5054796;28;20056;-22
2023/04/05 00:13:55;;;;;;;11.63;5.33;;;-1.90;80.90;;;;;;5054195;28;20049;-22
2023/04/05 00:16:21;;;;;;;8.57;4.43;;;-2.00;68.00;;;;;;5054818;28;20056;-22
2023/04/05 00:18:50;;;;;;;10.17;5.63;;;-2.00;64.20;;;;;;5054603;28;20048;-22
2023/04/05 00:21:20;;;;;;;9.87;5.17;;;-2.00;93.30;;;;;;5054288;28;20045;-22
2023/04/05 00:23:47;;;;;;;13.07;6.13;;;-2.10;99.90;;;;;;5054181;28;20041;-22
2023/04/05 00:26:13;;;;;;;13.70;5.77;;;-2.00;99.90;;;;;;5054475;28;20110;-22
2023/04/05 00:28:39;;;;;;;9.37;5.07;;;-2.10;99.90;;;;;;5053843;28;20132;-22
2023/04/05 00:31:05;;;;;;;11.50;6.00;;;-2.00;99.90;;;;;;5053000;28;20505;-22
2023/04/05 00:33:31;;;;;;;12.50;5.67;;;-2.10;99.90;;;;;;5054065;28;20040;-22
2023/04/05 00:35:57;;;;;;;14.40;5.63;;;-2.20;99.90;;;;;;5053097;28;20084;-22
2023/04/05 00:38:23;;;;;;;13.67;5.33;;;-2.30;99.90;;;;;;5053692;28;20072;-22
2023/04/05 00:40:49;;;;;;;13.80;5.50;;;-2.30;99.90;;;;;;5053966;28;20099;-22
2023/04/05 00:43:15;;;;;;;11.83;5.60;;;-2.40;99.90;;;;;;5053878;28;20049;-22
2023/04/05 00:45:41;;;;;;;10.87;4.93;;;-2.60;99.90;;;;;;5054457;28;20045;-22
2023/04/05 00:48:07;;;;;;;12.83;6.03;;;-2.60;99.90;;;;;;5053847;28;20045;-22
2023/04/05 00:50:33;;;;;;;17.70;6.43;;;-2.70;99.90;;;;;;5053428;28;20045;-22
2023/04/05 00:53:00;;;;;;;9.57;5.17;;;-2.80;99.90;;;;;;5053763;28;20045;-22
2023/04/05 00:55:26;;;;;;;14.10;5.57;;;-2.90;99.90;;;;;;5053737;28;20174;-22
2023/04/05 00:57:54;;;;;;;11.40;5.67;;;-2.90;99.90;;;;;;5053744;28;20074;-22
2023/04/05 01:00:21;;;;;;;10.43;5.63;;;-2.90;99.90;;;;;;5053363;28;20049;-22
2023/04/05 01:02:53;;;;;;;12.17;5.37;;;-2.90;99.90;;;;;;5052778;28;20055;-22
2023/04/05 01:06:10;;;;;;;15.00;5.57;;;-3.00;99.90;;;;;;5053994;28;20046;-22
2023/04/05 01:08:48;;;;;;;13.90;6.27;;;-3.00;99.90;;;;;;5041650;28;20407;-22
2023/04/05 01:11:15;;;;;;;14.10;5.73;;;-2.90;99.90;;;;;;5053955;28;20052;-22
2023/04/05 01:13:43;;;;;;;208.10;15.00;;;-2.90;99.90;;;;;;5053744;28;20178;-22
2023/04/05 01:16:10;;;;;;;12.37;5.50;;;-2.80;1.00;;;;;;5053812;28;20053;-22
2023/04/05 01:18:36;;;;;;;11.67;5.70;;;-2.80;1.00;;;;;;5053912;28;20049;-22
2023/04/05 01:21:19;;;;;;;20.83;7.63;;;-2.80;1.00;;;;;;5053714;28;20048;-22
2023/04/05 01:23:51;;;;;;;15.63;6.93;;;-2.80;1.00;;;;;;5053583;28;20056;-22
2023/04/05 01:26:41;;;;;;;18.43;7.47;;;-2.90;1.00;;;;;;5052680;28;20484;-22
2023/04/05 01:29:40;;;;;;;20.20;8.50;;;-2.50;1.00;;;;;;5053992;28;20049;-22
2023/04/05 01:32:24;;;;;;;19.00;8.40;;;-3.00;1.00;;;;;;5054246;28;20056;-22
2023/04/05 01:35:09;;;;;;;16.77;7.20;;;-3.10;1.00;;;;;;5053813;28;20459;-22
2023/04/05 01:37:37;;;;;;;18.63;7.77;;;-3.20;1.00;;;;;;5053031;28;20483;-22
2023/04/05 01:40:05;;;;;;;17.97;7.87;;;-3.20;1.00;;;;;;5053289;28;20045;-22
2023/04/05 01:42:30;;;;;;;15.07;7.20;;;-3.30;1.00;;;;;;5052006;28;20045;-22
2023/04/05 01:44:57;;;;;;;20.70;7.27;;;-3.30;1.00;;;;;;5053542;28;20052;-22
2023/04/05 01:47:23;;;;;;;16.80;7.20;;;-3.40;1.00;;;;;;5053221;28;20128;-22
2023/04/05 01:49:49;;;;;;;13.43;6.47;;;-3.50;1.00;;;;;;5052250;28;20136;-22
2023/04/05 01:52:15;;;;;;;16.33;7.37;;;-3.50;1.00;;;;;;5053144;28;20139;-23
2023/04/05 01:54:40;;;;;;;14.23;7.63;;;-3.60;1.00;;;;;;5053340;28;20041;-22
2023/04/05 01:57:06;;;;;;;19.40;7.80;;;-3.60;1.00;;;;;;5052836;28;20064;-22
2023/04/05 01:59:32;;;;;;;17.37;9.20;;;-3.50;17.90;;;;;;5051971;28;20167;-22
2023/04/05 02:01:58;;;;;;;16.17;6.87;;;-3.50;83.60;;;;;;5053103;28;20052;-22
2023/04/05 02:04:24;;;;;;;20.03;7.43;;;-3.50;96.60;;;;;;5055367;28;20123;-22
2023/04/05 02:06:49;;;;;;;17.10;7.90;;;-3.50;96.20;;;;;;5056898;28;20044;-22
2023/04/05 02:09:15;;;;;;;16.83;8.27;;;-3.40;98.00;;;;;;5055624;28;20049;-22
2023/04/05 02:11:41;;;;;;;20.13;9.23;;;-3.40;99.00;;;;;;5056782;28;20055;-22
2023/04/05 02:14:07;;;;;;;17.77;9.03;;;-3.40;97.40;;;;;;5056416;28;20041;-23
2023/04/05 02:16:33;;;;;;;23.37;9.77;;;-3.40;99.90;;;;;;5056305;28;20496;-22
2023/04/05 02:18:59;;;;;;;17.33;8.70;;;-3.40;99.90;;;;;;5056541;28;20131;-23
2023/04/05 02:21:25;;;;;;;20.90;10.47;;;-3.30;99.90;;;;;;5055423;28;20056;-22
2023/04/05 02:23:53;;;;;;;20.13;9.57;;;-3.20;99.90;;;;;;5057352;28;20037;-22
2023/04/05 02:26:20;;;;;;;20.23;9.60;;;-3.00;99.90;;;;;;5056454;28;20049;-22
2023/04/05 02:28:46;;;;;;;22.37;10.07;;;-3.00;99.90;;;;;;5055336;28;20478;-23
2023/04/05 02:31:12;;;;;;;20.17;10.20;;;-2.90;99.90;;;;;;5056375;28;20040;-22
2023/04/05 02:33:39;;;;;;;21.60;10.97;;;-2.80;99.90;;;;;;5056335;28;20052;-22
2023/04/05 02:36:06;;;;;;;22.03;10.97;;;-2.80;99.90;;;;;;5055583;28;20471;-22
2023/04/05 02:38:35;;;;;;;23.77;11.50;;;-2.70;99.90;;;;;;5056247;28;20045;-22
2023/04/05 02:41:01;;;;;;;23.60;11.33;;;-2.80;99.90;;;;;;5056235;28;20131;-22
2023/04/05 02:43:27;;;;;;;27.23;11.43;;;-2.90;99.90;;;;;;5056182;28;20049;-22
2023/04/05 02:45:54;;;;;;;18.97;10.70;;;-3.00;99.90;;;;;;5056088;28;20048;-22
2023/04/05 02:48:20;;;;;;;20.83;10.33;;;-3.00;99.90;;;;;;5056046;28;20187;-22
2023/04/05 02:50:49;;;;;;;22.03;10.00;;;-2.80;99.90;;;;;;5056042;28;20110;-22
2023/04/05 02:53:18;;;;;;;19.73;9.83;;;-3.20;99.90;;;;;;5055637;28;20045;-22
2023/04/05 02:55:54;;;;;;;18.83;10.00;;;-3.20;99.90;;;;;;5055910;28;20045;-22
2023/04/05 02:58:20;;;;;;;20.93;9.70;;;-3.30;99.90;;;;;;5055894;28;20131;-23
2023/04/05 03:00:49;;;;;;;20.03;9.67;;;-3.30;99.90;;;;;;5056103;28;20141;-22
2023/04/05 03:03:19;;;;;;;19.00;9.90;;;-3.40;99.90;;;;;;5054605;28;20056;-22
2023/04/05 03:05:47;;;;;;;20.53;9.43;;;-3.00;99.90;;;;;;5056269;28;20103;-22
2023/04/05 03:08:22;;;;;;;21.73;9.93;;;-3.40;99.90;;;;;;5055960;28;20421;-22
2023/04/05 03:10:50;;;;;;;23.77;10.70;;;-3.50;99.90;;;;;;5055710;28;20049;-22
2023/04/05 03:13:16;;;;;;;18.33;10.23;;;-3.40;99.90;;;;;;5054025;28;20052;-22
2023/04/05 03:15:42;;;;;;;21.70;11.10;;;-3.40;99.90;;;;;;5055257;28;20507;-22
2023/04/05 03:18:08;;;;;;;28.20;11.80;;;-3.40;99.90;;;;;;5055813;28;20123;-22
2023/04/05 03:20:39;;;;;;;27.50;11.60;;;-3.30;99.90;;;;;;5055316;28;20548;-22
2023/04/05 03:23:08;;;;;;;27.40;12.07;;;-3.30;99.90;;;;;;5056044;28;20060;-22
2023/04/05 03:25:36;;;;;;;24.53;12.40;;;-3.30;99.90;;;;;;5054474;28;20136;-22
2023/04/05 03:28:07;;;;;;;24.27;11.77;;;-3.30;99.90;;;;;;5055388;28;20164;-22
2023/04/05 03:30:34;;;;;;;23.73;11.40;;;-3.30;99.90;;;;;;5055758;28;20056;-22
2023/04/05 03:33:00;;;;;;;29.73;12.90;;;-3.30;99.90;;;;;;5055218;28;20083;-22
2023/04/05 03:35:29;;;;;;;23.13;11.67;;;-3.30;99.90;;;;;;5054739;28;20037;-22
2023/04/05 03:37:56;;;;;;;22.13;10.73;;;-3.30;99.90;;;;;;5055177;28;20449;-22
2023/04/05 03:40:23;;;;;;;22.97;11.10;;;-3.30;99.90;;;;;;5054369;28;20053;-22
2023/04/05 03:42:49;;;;;;;20.80;10.73;;;-3.20;99.90;;;;;;5055024;28;20056;-22
2023/04/05 03:45:15;;;;;;;23.70;10.90;;;-3.20;99.90;;;;;;5054969;28;20049;-22
2023/04/05 03:47:41;;;;;;;20.53;11.57;;;-3.20;99.90;;;;;;5055030;28;20044;-22
2023/04/05 03:50:08;;;;;;;21.13;10.13;;;-3.30;99.90;;;;;;5054927;28;20049;-22
2023/04/05 03:52:34;;;;;;;23.03;12.23;;;-3.30;99.90;;;;;;5053913;28;20045;-22
2023/04/05 03:55:00;;;;;;;22.23;10.60;;;-3.40;99.90;;;;;;5054375;28;20045;-22
2023/04/05 03:57:27;;;;;;;28.07;12.73;;;-3.50;99.90;;;;;;5053545;28;20395;-22
2023/04/05 03:59:53;;;;;;;28.67;12.20;;;-3.50;99.90;;;;;;5054744;28;20044;-22
2023/04/05 04:02:19;;;;;;;27.80;12.07;;;-3.30;99.90;;;;;;5054675;28;20051;-22
2023/04/05 04:04:46;;;;;;;23.77;11.33;;;-3.70;99.90;;;;;;5054670;28;20036;-22
2023/04/05 04:07:12;;;;;;;23.37;11.93;;;-3.70;99.90;;;;;;5037185;28;20083;-22
2023/04/05 04:09:38;;;;;;;24.97;11.17;;;-3.70;99.90;;;;;;5055335;28;20053;-22
2023/04/05 04:12:04;;;;;;;24.70;11.83;;;-3.60;99.90;;;;;;5053546;28;20056;-22
2023/04/05 04:14:30;;;;;;;29.10;12.53;;;-3.60;99.90;;;;;;5054214;28;20111;-22
2023/04/05 04:16:55;;;;;;;26.27;12.63;;;-3.60;99.90;;;;;;5054518;28;20061;-22
2023/04/05 04:19:21;;;;;;;33.87;13.90;;;-3.50;99.90;;;;;;5053239;28;20057;-22
2023/04/05 04:21:50;;;;;;;30.40;13.90;;;-3.60;99.90;;;;;;5054344;28;20044;-22
2023/04/05 04:24:20;;;;;;;33.20;14.37;;;-3.60;99.90;;;;;;5053134;28;20064;-22
2023/04/05 04:26:47;;;;;;;31.83;15.17;;;-3.60;99.90;;;;;;5053532;28;20056;-22
2023/04/05 04:29:16;;;;;;;29.50;12.90;;;-3.70;99.90;;;;;;5054224;28;20131;-22
2023/04/05 04:31:44;;;;;;;22.87;10.50;;;-3.80;99.90;;;;;;5037467;28;20049;-22
2023/04/05 04:34:13;;;;;;;28.13;11.20;;;-3.90;99.90;;;;;;5054076;28;20128;-22
2023/04/05 04:36:41;;;;;;;20.97;11.33;;;-4.00;99.90;;;;;;5052867;28;20047;-22
2023/04/05 04:39:09;;;;;;;28.07;12.13;;;-4.00;99.90;;;;;;5053995;28;20052;-22
2023/04/05 04:41:37;;;;;;;21.97;10.33;;;-4.00;99.90;;;;;;5053999;28;20054;-22
2023/04/05 04:44:04;;;;;;;19.57;9.53;;;-4.10;99.90;;;;;;5054190;28;20510;-22
2023/04/05 04:46:33;;;;;;;21.43;10.13;;;-4.20;99.90;;;;;;5053731;28;20394;-22
2023/04/05 04:49:05;;;;;;;26.00;10.80;;;-4.20;99.90;;;;;;5053853;28;20044;-22
2023/04/05 04:51:32;;;;;;;23.70;11.17;;;-4.10;99.90;;;;;;5054479;28;20055;-22
2023/04/05 04:53:58;;;;;;;22.27;10.53;;;-4.10;1.00;;;;;;5053663;28;20044;-22
2023/04/05 04:56:23;;;;;;;19.27;9.23;;;-4.20;99.90;;;;;;5053705;28;20048;-22
2023/04/05 04:58:49;;;;;;;22.73;12.20;;;-4.20;99.90;;;;;;5053366;28;20044;-22
2023/04/05 05:01:15;;;;;;;20.90;11.13;;;-4.00;99.90;;;;;;5052690;28;20510;-22
2023/04/05 05:03:42;;;;;;;20.73;10.90;;;-3.90;99.90;;;;;;5053653;28;20048;-22
2023/04/05 05:06:07;;;;;;;23.10;11.03;;;-3.90;99.90;;;;;;5052440;28;20041;-22
2023/04/05 05:08:34;;;;;;;64.97;10.97;;;-3.90;99.90;;;;;;5053869;28;20045;-22
2023/04/05 05:11:00;;;;;;;130.87;12.77;;;-3.90;99.90;;;;;;5052375;28;20053;-22
2023/04/05 05:13:25;;;;;;;177.63;17.03;;;-4.00;99.90;;;;;;5053499;28;20055;-22
2023/04/05 05:15:51;;;;;;;23.43;11.60;;;-4.10;99.90;;;;;;5035294;28;20057;-22
2023/04/05 05:18:17;;;;;;;24.37;10.40;;;-3.80;99.90;;;;;;5053970;28;20132;-22
2023/04/05 05:20:43;;;;;;;19.60;9.07;;;-4.30;99.90;;;;;;5053471;28;20055;-22
2023/04/05 05:23:09;;;;;;;17.27;8.77;;;-4.40;99.90;;;;;;5053423;28;20041;-22
2023/04/05 05:25:35;;;;;;;16.83;8.33;;;-4.40;99.90;;;;;;5053452;28;20037;-22
2023/04/05 05:28:01;;;;;;;15.60;8.67;;;-4.40;99.90;;;;;;5052715;28;20052;-22
2023/04/05 05:30:27;;;;;;;22.90;10.33;;;-4.30;99.90;;;;;;5053421;28;20045;-22
2023/04/05 05:32:53;;;;;;;22.33;11.57;;;-4.20;99.90;;;;;;5053322;28;20395;-22
2023/04/05 05:35:19;;;;;;;20.53;10.40;;;-4.10;99.90;;;;;;5053856;28;20052;-22
2023/04/05 05:37:45;;;;;;;23.77;11.53;;;-3.90;99.90;;;;;;5056766;28;20041;-22
2023/04/05 05:40:12;;;;;;;43.37;16.40;;;-3.70;99.90;;;;;;5039815;28;20140;-22
2023/04/05 05:42:38;;;;;;;24.13;12.63;;;-3.60;99.90;;;;;;5057385;28;20087;-22
2023/04/05 05:45:05;;;;;;;23.43;10.63;;;-3.50;99.90;;;;;;5057885;28;20045;-22
2023/04/05 05:47:31;;;;;;;18.90;11.03;;;-3.50;99.90;;;;;;5057219;28;20186;-22
2023/04/05 05:49:57;;;;;;;25.93;12.27;;;-3.60;99.90;;;;;;5040427;28;20084;-22
2023/04/05 05:52:23;;;;;;;28.90;14.50;;;-3.50;99.90;;;;;;5056880;28;20084;-22
2023/04/05 05:54:49;;;;;;;32.97;14.37;;;-3.50;99.90;;;;;;5055799;28;20045;-22
2023/04/05 05:57:15;;;;;;;26.73;14.67;;;-3.40;99.90;;;;;;5057754;28;20045;-22
2023/04/05 05:59:40;;;;;;;24.73;12.70;;;-3.30;1.00;;;;;;5057124;28;20052;-22
2023/04/05 06:02:07;;;;;;;27.50;14.23;;;-3.20;1.00;;;;;;5057650;28;20045;-22
2023/04/05 06:04:33;;;;;;;21.07;11.90;;;-3.00;1.00;;;;;;5056059;28;20473;-22
2023/04/05 06:06:59;;;;;;;23.10;11.57;;;-2.90;1.00;;;;;;5056729;28;20048;-21
2023/04/05 06:09:26;;;;;;;23.30;13.13;;;-2.90;1.00;;;;;;5055831;28;20041;-22
2023/04/05 06:11:52;;;;;;;29.03;15.90;;;-2.80;1.00;;;;;;5057576;28;20153;-22
2023/04/05 06:14:18;;;;;;;33.77;15.47;;;-2.70;1.00;;;;;;5056610;28;20063;-22
2023/04/05 06:16:44;;;;;;;44.50;21.00;;;-2.60;1.00;;;;;;5056815;28;20060;-22
2023/04/05 06:19:10;;;;;;;47.90;22.50;;;-2.50;1.00;;;;;;5056536;28;20488;-22
2023/04/05 06:21:36;;;;;;;38.37;19.63;;;-2.00;1.00;;;;;;5057148;28;20044;-22
2023/04/05 06:24:01;;;;;;;41.17;22.00;;;-2.10;1.00;;;;;;5056799;28;20056;-22
2023/04/05 06:26:28;;;;;;;43.27;20.93;;;-1.90;1.00;;;;;;5057057;28;20490;-22
2023/04/05 06:28:55;;;;;;;61.97;31.37;;;-1.80;1.00;;;;;;5039670;28;20045;-22
2023/04/05 06:31:31;;;;;;;52.80;28.63;;;-1.70;7.80;;;;;;5056364;28;20049;-22
2023/04/05 06:33:57;;;;;;;50.47;28.10;;;-1.50;1.00;;;;;;5056628;28;20124;-22
2023/04/05 06:36:23;;;;;;;57.30;30.57;;;-1.20;29.00;;;;;;5056303;28;20214;-22
2023/04/05 06:38:50;;;;;;;65.40;31.57;;;-1.00;88.30;;;;;;5055863;28;20045;-22
2023/04/05 06:41:16;;;;;;;56.33;31.77;;;-0.80;95.10;;;;;;5056201;28;20118;-22
2023/04/05 06:43:41;;;;;;;58.90;30.53;;;-0.60;99.90;;;;;;5056701;28;20040;-22
2023/04/05 06:46:10;;;;;;;51.20;30.60;;;-0.50;99.90;;;;;;5056429;28;20423;-22
2023/04/05 06:48:36;;;;;;;57.33;31.77;;;0.00;99.90;;;;;;5055427;28;20057;-22
2023/04/05 06:51:02;;;;;;;61.77;34.20;;;-0.20;99.90;;;;;;5056005;28;20110;-22
2023/04/05 06:53:29;;;;;;;52.07;31.23;;;-0.20;99.90;;;;;;5055940;28;20041;-22
2023/04/05 06:55:58;;;;;;;48.73;29.13;;;0.30;99.90;;;;;;5055868;28;20049;-22
2023/04/05 06:58:26;;;;;;;54.03;29.50;;;0.00;99.90;;;;;;5055861;28;20049;-22
2023/04/05 07:00:52;;;;;;;52.17;28.77;;;0.20;99.90;;;;;;5055955;28;20061;-22
2023/04/05 07:03:18;;;;;;;46.87;28.20;;;0.20;99.90;;;;;;5055624;28;20536;-22
2023/04/05 07:05:58;;;;;;;41.70;25.90;;;0.40;99.90;;;;;;5055659;28;20131;-22
2023/04/05 07:08:25;;;;;;;42.60;24.83;;;1.00;99.90;;;;;;5055630;28;20051;-22
2023/04/05 07:10:52;;;;;;;42.30;25.73;;;0.60;99.90;;;;;;5056185;28;20127;-22
2023/04/05 07:13:19;;;;;;;35.57;22.70;;;0.70;99.90;;;;;;5056060;28;20399;-22
2023/04/05 07:15:45;;;;;;;39.43;23.90;;;0.80;95.30;;;;;;5055184;28;20142;-22
2023/04/05 07:18:14;;;;;;;31.47;21.37;;;0.90;73.30;;;;;;5053914;28;20057;-21
2023/04/05 07:20:40;;;;;;;30.23;20.90;;;1.00;53.60;;;;;;5055434;28;20044;-22
2023/04/05 07:23:06;;;;;;;32.73;19.80;;;1.10;26.10;;;;;;5055400;28;20198;-22
2023/04/05 07:25:32;;;;;;;27.67;18.47;;;1.20;30.30;;;;;;5054138;28;20473;-22
2023/04/05 07:27:58;;;;;;;31.20;17.80;;;1.30;22.60;;;;;;5055347;28;20047;-22
2023/04/05 07:30:26;;;;;;;29.07;17.00;;;1.40;23.20;;;;;;5053930;28;20036;-22
2023/04/05 07:32:52;;;;;;;24.53;15.37;;;1.50;1.00;;;;;;5055190;28;20053;-22
2023/04/05 07:35:18;;;;;;;25.33;16.97;;;1.60;1.00;;;;;;5055085;28;20478;-22
2023/04/05 07:37:44;;;;;;;20.37;14.50;;;1.80;1.00;;;;;;5055153;28;20056;-22
2023/04/05 07:40:11;;;;;;;20.33;13.50;;;1.90;1.00;;;;;;5055078;28;20395;-22
2023/04/05 07:42:36;;;;;;;22.23;13.90;;;2.10;1.00;;;;;;5055132;28;20047;-22
2023/04/05 07:45:03;;;;;;;23.53;15.13;;;2.30;1.00;;;;;;5055028;28;20040;-22
2023/04/05 07:47:28;;;;;;;19.77;13.60;;;2.40;1.00;;;;;;5054556;28;20051;-22
2023/04/05 07:49:54;;;;;;;21.30;12.87;;;2.60;1.00;;;;;;5054909;28;20391;-22
2023/04/05 07:52:20;;;;;;;17.90;12.93;;;2.70;1.00;;;;;;5054885;28;20044;-22
2023/04/05 07:54:46;;;;;;;20.83;13.00;;;2.90;1.00;;;;;;5054776;28;20195;-22
2023/04/05 07:57:18;;;;;;;17.47;11.83;;;3.10;99.90;;;;;;5054777;28;20098;-22
2023/04/05 07:59:44;;;;;;;16.77;11.43;;;3.30;99.90;;;;;;5054019;28;20049;-22
2023/04/05 08:02:10;;;;;;;14.60;10.70;;;3.40;92.30;;;;;;5053319;28;20049;-22
2023/04/05 08:04:36;;;;;;;15.40;10.67;;;3.60;1.00;;;;;;5055187;28;20041;-22
2023/04/05 08:07:02;;;;;;;16.10;11.67;;;3.80;44.20;;;;;;5054543;28;20183;-22
2023/04/05 08:09:28;;;;;;;14.87;10.07;;;4.00;18.40;;;;;;5053591;28;20044;-22
2023/04/05 08:11:53;;;;;;;15.27;9.20;;;4.10;1.00;;;;;;5054490;28;20044;-22
2023/04/05 08:14:19;;;;;;;12.27;8.90;;;4.30;1.00;;;;;;5054164;28;20455;-22
2023/04/05 08:16:45;;;;;;;13.53;8.80;;;4.40;99.90;;;;;;5054226;28;20079;-22
2023/04/05 08:19:12;;;;;;;12.73;9.70;;;4.50;99.90;;;;;;5054257;28;20052;-22
2023/04/05 08:21:38;;;;;;;15.43;8.83;;;4.60;74.60;;;;;;5055173;28;20146;-22
2023/04/05 08:24:03;;;;;;;10.93;8.03;;;4.80;1.00;;;;;;5054328;28;20475;-22
2023/04/05 08:26:29;;;;;;;12.55;8.95;;;4.90;1.00;;;;;;5053284;28;20048;-22
2023/04/05 08:28:55;;;;;;;11.40;7.90;;;5.00;1.00;;;;;;5054249;28;20071;-22
2023/04/05 08:31:21;;;;;;;12.52;8.70;;;5.10;99.90;;;;;;5053445;28;20106;-22
2023/04/05 08:33:46;;;;;;;13.90;8.43;;;5.20;99.90;;;;;;5054328;28;20099;-22
2023/04/05 08:36:12;;;;;;;13.80;7.70;;;5.30;99.90;;;;;;5054024;28;20044;-23
2023/04/05 08:38:38;;;;;;;11.70;7.78;;;5.50;99.90;;;;;;5053992;28;20044;-22
2023/04/05 08:41:11;;;;;;;11.07;7.87;;;5.60;1.00;;;;;;5052454;28;20040;-23
2023/04/05 08:43:50;;;;;;;10.40;7.25;;;5.70;6.70;;;;;;5053917;28;20483;-23
2023/04/05 08:46:17;;;;;;;12.48;6.72;;;5.80;1.00;;;;;;5065819;28;20044;-22
2023/04/05 08:48:43;;;;;;;11.80;6.90;;;6.00;1.00;;;;;;5036294;28;20080;-23
2023/04/05 08:51:09;;;;;;;12.38;6.53;;;6.10;1.00;;;;;;5062523;28;20075;-23
2023/04/05 08:53:35;;;;;;;12.50;6.35;;;6.20;51.90;;;;;;5072529;28;20471;-22
2023/04/05 08:56:03;;;;;;;11.95;6.18;;;6.30;92.90;;;;;;5072759;28;20044;-23
2023/04/05 08:58:30;;;;;;;12.18;6.70;;;6.40;1.00;;;;;;5054813;28;20084;-22
2023/04/05 09:00:57;;;;;;;9.10;5.90;;;6.40;99.90;;;;;;5072633;28;20371;-22
2023/04/05 09:03:28;;;;;;;10.98;5.55;;;6.70;1.00;;;;;;5072524;28;20049;-22
2023/04/05 09:05:57;;;;;;;7.15;4.78;;;6.80;99.90;;;;;;5072641;28;20051;-23
2023/04/05 09:08:23;;;;;;;10.10;5.32;;;6.90;99.90;;;;;;5073456;28;20394;-23
2023/04/05 09:10:53;;;;;;;9.00;4.63;;;7.10;99.90;;;;;;5072247;28;20505;-24
2023/04/05 09:13:18;;;;;;;9.02;5.10;;;7.80;99.90;;;;;;5072491;28;20048;-25
2023/04/05 09:15:45;;;;;;;8.55;5.13;;;9.10;99.90;;;;;;5073275;28;20053;-24
2023/04/05 09:18:11;;;;;;;7.65;4.47;;;10.30;1.00;;;;;;5073628;28;20413;-24
2023/04/05 09:20:37;;;;;;;8.80;4.55;;;11.30;99.90;;;;;;5072073;28;20044;-24
2023/04/05 09:23:03;;;;;;;7.93;4.40;;;11.90;1.00;;;;;;5073499;28;20044;-24
2023/04/05 09:25:34;;;;;;;10.05;5.07;;;12.50;99.90;;;;;;5073511;28;20056;-24
2023/04/05 09:28:02;;;;;;;7.20;4.38;;;12.80;99.90;;;;;;5073763;28;20055;-24
2023/04/05 09:30:28;;;;;;;10.95;4.78;;;13.30;99.90;;;;;;5072495;28;20541;-24
2023/04/05 09:32:55;;;;;;;8.55;4.07;;;13.50;1.00;;;;;;5056514;28;20136;-24
2023/04/05 09:35:23;;;;;;;6.63;4.40;;;13.80;1.00;;;;;;5073354;28;20051;-25
2023/04/05 09:37:54;;;;;;;7.82;3.97;;;14.20;15.80;;;;;;5073389;28;20063;-24
2023/04/05 09:40:20;;;;;;;6.60;3.53;;;14.40;1.00;;;;;;5072452;28;20538;-25
2023/04/05 09:42:47;;;;;;;7.20;4.13;;;14.50;1.00;;;;;;5073262;28;20483;-25
2023/04/05 09:45:17;;;;;;;7.10;4.53;;;14.60;1.00;;;;;;5072290;28;20055;-25
2023/04/05 09:47:54;;;;;;;5.03;3.33;;;14.70;1.00;;;;;;5073332;28;20454;-25
2023/04/05 09:50:20;;;;;;;9.00;3.88;;;14.60;1.00;;;;;;5073828;28;20083;-25
2023/04/05 09:52:46;;;;;;;7.20;3.90;;;14.60;1.00;;;;;;5073160;28;20420;-25
2023/04/05 09:55:13;;;;;;;6.15;3.90;;;14.70;1.00;;;;;;5073087;28;20067;-25
2023/04/05 09:57:40;;;;;;;5.30;3.95;;;14.80;1.00;;;;;;5073752;28;20082;-25
2023/04/05 10:00:18;;;;;;;5.25;3.83;;;15.20;1.00;;;;;;5073143;28;20052;-24
2023/04/05 10:02:46;;;;;;;8.32;4.13;;;15.30;1.00;;;;;;5056186;28;20044;-22
2023/04/05 10:05:14;;;;;;;6.03;3.60;;;15.50;1.00;;;;;;5055931;28;20053;-23
2023/04/05 10:07:43;;;;;;;16.52;11.25;;;15.70;1.00;;;;;;5053002;28;20052;-23
2023/04/05 10:10:11;;;;;;;4.85;3.88;;;15.60;1.00;;;;;;5053009;28;20052;-23
2023/04/05 10:12:40;;;;;;;5.20;3.17;;;15.20;1.00;;;;;;5064839;28;20123;-24
2023/04/05 10:15:07;;;;;;;6.53;3.70;;;15.20;1.00;;;;;;5068420;28;20505;-23
2023/04/05 10:18:06;;;;;;;5.53;3.78;;;15.00;1.00;;;;;;5055634;28;20102;-23
2023/04/05 10:20:34;;;;;;;5.78;3.65;;;15.40;1.00;;;;;;5072662;28;20520;-24
2023/04/05 10:23:07;;;;;;;6.63;3.78;;;15.50;1.00;;;;;;5068952;28;20518;-23
2023/04/05 10:25:36;;;;;;;6.07;3.95;;;13.80;1.00;;;;;;5056600;28;20077;-23
2023/04/05 10:28:25;;;;;;;5.63;3.83;;;12.70;1.00;;;;;;5055502;28;20057;-23
2023/04/05 10:30:54;;;;;;;7.55;5.43;;;13.50;1.00;;;;;;5053409;28;20060;-22
2023/04/05 10:33:32;;;;;;;8.02;4.63;;;14.20;1.00;;;;;;5070950;28;20116;-22
2023/04/05 10:36:26;;;;;;;5.82;3.47;;;14.50;1.00;;;;;;5057232;28;20124;-24
2023/04/05 10:39:22;;;;;;;9.25;5.07;;;14.50;1.00;;;;;;5056886;28;20052;-23
2023/04/05 10:41:53;;;;;;;8.02;4.90;;;15.20;2.80;;;;;;5056818;28;20049;-23
2023/04/05 10:44:19;;;;;;;6.50;3.80;;;15.30;1.10;;;;;;5056438;28;20058;-23
2023/04/05 10:46:45;;;;;;;6.47;4.18;;;15.80;34.30;;;;;;5056071;28;20053;-24
2023/04/05 10:49:25;;;;;;;5.80;3.63;;;15.70;35.00;;;;;;5054844;28;20398;-23
2023/04/05 10:51:51;;;;;;;7.53;3.88;;;15.50;21.60;;;;;;5059196;28;20049;-23
2023/04/05 10:54:18;;;;;;;4.75;3.58;;;15.00;9.60;;;;;;5055941;28;20092;-24
2023/04/05 10:56:44;;;;;;;7.07;4.20;;;15.00;1.00;;;;;;5056414;28;20129;-23
2023/04/05 10:59:12;;;;;;;4.80;3.35;;;15.60;15.20;;;;;;5056184;28;20045;-23
2023/04/05 11:01:39;;;;;;;6.88;3.35;;;15.70;38.70;;;;;;5055824;28;20041;-23
2023/04/05 11:04:16;;;;;;;4.95;2.90;;;15.80;40.50;;;;;;5054814;28;20078;-24
2023/04/05 11:06:42;;;;;;;6.65;3.40;;;16.10;24.40;;;;;;5055745;28;20053;-23
2023/04/05 11:09:15;;;;;;;8.00;3.80;;;15.90;10.80;;;;;;5055710;28;20045;-24
2023/04/05 11:11:46;;;;;;;8.20;3.70;;;15.90;6.40;;;;;;5059299;28;20068;-23
2023/04/05 11:14:34;;;;;;;7.07;3.75;;;16.30;21.30;;;;;;5068456;28;20037;-23
2023/04/05 11:17:01;;;;;;;8.13;4.00;;;16.40;18.20;;;;;;5073306;28;20053;-24
2023/04/05 11:19:41;;;;;;;8.48;3.85;;;16.50;24.90;;;;;;5073941;28;20525;-24
2023/04/05 11:22:11;;;;;;;4.85;3.15;;;16.30;15.10;;;;;;5070255;28;20049;-23
2023/04/05 11:25:00;;;;;;;6.65;3.63;;;16.60;31.80;;;;;;5055741;28;20457;-24
2023/04/05 11:27:31;;;;;;;5.30;3.25;;;16.50;22.80;;;;;;5038138;28;20055;-24
2023/04/05 11:30:01;;;;;;;5.65;3.53;;;15.70;4.20;;;;;;5054134;28;20040;-24
2023/04/05 11:32:44;;;;;;;7.88;4.18;;;16.20;25.50;;;;;;5067272;28;20135;-24
2023/04/05 11:35:21;;;;;;;5.90;3.58;;;16.10;14.40;;;;;;5075603;28;20044;-24
2023/04/05 11:38:00;;;;;;;7.45;3.95;;;16.10;26.30;;;;;;5075080;28;20055;-24
2023/04/05 11:40:32;;;;;;;6.30;3.63;;;16.30;14.60;;;;;;5075009;28;20052;-24
2023/04/05 11:42:59;;;;;;;5.80;3.80;;;16.40;24.60;;;;;;5058974;28;20044;-24
2023/04/05 11:45:25;;;;;;;6.32;3.83;;;16.60;23.30;;;;;;5053902;28;20052;-24
2023/04/05 11:47:51;;;;;;;6.88;3.65;;;16.60;46.90;;;;;;5059018;28;20434;-23
2023/04/05 11:50:17;;;;;;;5.50;3.35;;;16.80;62.00;;;;;;5054593;28;20110;-24
2023/04/05 11:52:43;;;;;;;5.35;3.67;;;17.10;59.20;;;;;;5056801;28;20129;-24
2023/04/05 11:55:10;;;;;;;8.00;3.97;;;17.20;64.30;;;;;;5053588;28;20041;-24
2023/04/05 11:57:36;;;;;;;5.50;3.40;;;16.70;41.70;;;;;;5063826;28;20084;-23
2023/04/05 12:00:03;;;;;;;6.50;3.80;;;16.80;1.00;;;;;;5074711;28;20053;-24
2023/04/05 12:02:33;;;;;;;5.40;3.55;;;17.10;1.00;;;;;;5066539;28;20041;-23
2023/04/05 12:04:59;;;;;;;6.43;3.78;;;17.40;1.00;;;;;;5053738;28;20091;-24
2023/04/05 12:07:35;;;;;;;5.78;3.83;;;17.60;1.00;;;;;;5053476;28;20037;-24
2023/04/05 12:10:14;;;;;;;6.53;3.58;;;17.20;1.00;;;;;;5063760;28;20048;-24
2023/04/05 12:12:42;;;;;;;5.05;3.28;;;17.10;1.00;;;;;;5065308;28;20120;-24
2023/04/05 12:15:13;;;;;;;5.28;3.50;;;17.00;1.00;;;;;;5054020;28;20048;-24
2023/04/05 12:17:43;;;;;;;5.20;3.67;;;17.00;1.00;;;;;;5054643;28;20088;-24
2023/04/05 12:20:14;;;;;;;6.05;3.50;;;16.80;1.00;;;;;;5054405;28;20045;-24
2023/04/05 12:22:42;;;;;;;7.03;4.30;;;16.90;1.00;;;;;;5066699;28;20052;-24
2023/04/05 12:25:09;;;;;;;9.43;3.25;;;16.40;1.00;;;;;;5072954;28;20552;-24
2023/04/05 12:27:35;;;;;;;6.78;4.07;;;16.80;1.00;;;;;;5056649;28;20044;-24
2023/04/05 12:30:09;;;;;;;5.65;3.60;;;16.60;1.00;;;;;;5073351;28;20079;-24
2023/04/05 12:32:46;;;;;;;7.00;3.97;;;16.40;1.00;;;;;;5063531;28;20053;-23
2023/04/05 12:35:14;;;;;;;6.95;4.22;;;16.60;1.00;;;;;;5068124;28;20052;-24
2023/04/05 12:37:40;;;;;;;6.88;3.30;;;16.50;1.00;;;;;;5074554;28;20105;-24
2023/04/05 12:40:07;;;;;;;4.53;3.40;;;16.60;1.00;;;;;;5071803;28;20048;-24
2023/04/05 12:42:35;;;;;;;15.20;9.18;;;17.00;1.00;;;;;;5070749;28;20056;-24
2023/04/05 12:45:11;;;;;;;5.63;3.47;;;17.40;1.00;;;;;;5039727;28;20083;-23
2023/04/05 12:47:56;;;;;;;5.28;3.58;;;17.00;1.00;;;;;;5073257;28;20052;-23